Wetterdaten: Woche 25.01.16 - 31.01.16 (KW4)
Datum Zeit Temp. A. Feuchte A. Luftdruck Regen Wind Richtung Taupunkt Windchill Windben
25.01.2016 00:00 -0,8 C 84 % 1031,9 hPa 0,0 l/m 0,0 km/h N -3,1 C -0,8 C 0,0 km/h
25.01.2016 01:00 -1,0 C 84 % 1031,2 hPa 0,0 l/m 0,2 km/h N -3,3 C -1,0 C 2,0 km/h
25.01.2016 02:00 -0,4 C 84 % 1030,6 hPa 0,0 l/m 0,1 km/h N -2,8 C -0,4 C 1,6 km/h
25.01.2016 03:00 0,1 C 83 % 1029,9 hPa 0,0 l/m 0,1 km/h N -2,4 C 0,1 C 2,0 km/h
25.01.2016 04:00 0,6 C 83 % 1029,7 hPa 0,0 l/m 0,3 km/h N -1,9 C 0,6 C 3,6 km/h
25.01.2016 05:00 1,8 C 83 % 1029,1 hPa 0,0 l/m 1,8 km/h N -0,9 C 1,8 C 8,4 km/h
25.01.2016 06:00 4,4 C 83 % 1028,9 hPa 1,0 l/m 1,3 km/h N 1,8 C 4,4 C 6,9 km/h
25.01.2016 07:00 3,1 C 84 % 1029,0 hPa 1,0 l/m 0,2 km/h N 0,7 C 3,1 C 2,0 km/h
25.01.2016 08:00 3,2 C 84 % 1029,2 hPa 1,6 l/m 0,2 km/h N 0,6 C 3,2 C 2,4 km/h
25.01.2016 09:00 3,3 C 83 % 1028,9 hPa 1,0 l/m 0,1 km/h N 0,7 C 3,3 C 1,6 km/h
25.01.2016 10:00 3,5 C 83 % 1028,4 hPa 0,3 l/m 0,2 km/h N 0,9 C 3,5 C 1,6 km/h
25.01.2016 11:00 4,3 C 82 % 1028,0 hPa 0,0 l/m 2,9 km/h N 1,5 C 3,8 C 7,7 km/h
25.01.2016 12:00 6,8 C 82 % 1027,4 hPa 0,0 l/m 6,8 km/h N 4,0 C 6,2 C 13,7 km/h
25.01.2016 13:00 7,6 C 83 % 1026,7 hPa 0,3 l/m 9,8 km/h N 5,0 C 5,2 C 19,3 km/h
25.01.2016 14:00 8,4 C 82 % 1026,2 hPa 0,0 l/m 10,4 km/h N 5,5 C 5,6 C 22,5 km/h
25.01.2016 15:00 8,7 C 81 % 1026,3 hPa 0,0 l/m 8,6 km/h N 5,6 C 7,2 C 20,9 km/h
25.01.2016 16:00 8,5 C 83 % 1026,1 hPa 0,0 l/m 9,7 km/h N 5,7 C 6,1 C 23,7 km/h
25.01.2016 17:00 9,1 C 82 % 1025,9 hPa 0,0 l/m 8,6 km/h N 6,2 C 7,6 C 21,7 km/h
25.01.2016 18:00 9,6 C 80 % 1026,4 hPa 0,0 l/m 6,2 km/h N 6,3 C 9,4 C 16,5 km/h
25.01.2016 19:00 9,9 C 79 % 1026,5 hPa 0,0 l/m 6,5 km/h N 6,5 C 9,7 C 16,9 km/h
25.01.2016 20:00 9,9 C 80 % 1026,7 hPa 0,0 l/m 8,6 km/h N 6,6 C 8,4 C 17,7 km/h
25.01.2016 21:00 10,2 C 80 % 1026,8 hPa 0,0 l/m 11,3 km/h N 6,8 C 7,1 C 22,1 km/h
25.01.2016 22:00 10,3 C 79 % 1026,8 hPa 0,0 l/m 8,8 km/h N 6,8 C 8,5 C 17,7 km/h
25.01.2016 23:00 9,6 C 80 % 1026,6 hPa 0,0 l/m 2,0 km/h N 6,4 C 9,6 C 6,8 km/h
26.01.2016 00:00 9,4 C 80 % 1026,6 hPa 0,0 l/m 0,6 km/h N 6,2 C 9,4 C 4,8 km/h
26.01.2016 01:00 8,6 C 80 % 1026,4 hPa 0,0 l/m 1,1 km/h N 5,3 C 8,6 C 5,6 km/h
26.01.2016 02:00 9,2 C 72 % 1026,0 hPa 0,0 l/m 3,8 km/h N 4,3 C 9,2 C 9,6 km/h
26.01.2016 03:00 8,8 C 73 % 1026,0 hPa 0,0 l/m 3,0 km/h N 4,3 C 8,8 C 10,1 km/h
26.01.2016 04:00 7,9 C 73 % 1025,6 hPa 0,0 l/m 0,0 km/h N 3,4 C 7,9 C 0,8 km/h
26.01.2016 05:00 6,2 C 79 % 1025,7 hPa 0,0 l/m 0,3 km/h N 2,8 C 6,2 C 3,2 km/h
26.01.2016 06:00 9,6 C 70 % 1025,7 hPa 0,0 l/m 5,7 km/h N 4,1 C 9,1 C 17,7 km/h
26.01.2016 07:00 11,7 C 58 % 1025,8 hPa 0,0 l/m 4,7 km/h N 3,6 C 11,3 C 17,3 km/h
26.01.2016 08:00 12,6 C 56 % 1025,5 hPa 0,0 l/m 7,8 km/h N 4,1 C 11,4 C 21,3 km/h
26.01.2016 09:00 12,8 C 55 % 1025,8 hPa 0,0 l/m 4,0 km/h N 4,1 C 12,8 C 14,1 km/h
26.01.2016 10:00 13,0 C 51 % 1026,0 hPa 0,0 l/m 10,3 km/h N 3,2 C 10,9 C 25,4 km/h
26.01.2016 11:00 13,3 C 47 % 1025,9 hPa 0,0 l/m 14,9 km/h N 2,3 C 9,2 C 26,2 km/h
26.01.2016 12:00 13,6 C 49 % 1025,8 hPa 0,0 l/m 13,4 km/h N 3,1 C 10,1 C 27,8 km/h
26.01.2016 13:00 13,6 C 48 % 1025,7 hPa 0,0 l/m 15,1 km/h N 2,7 C 9,4 C 29,0 km/h
26.01.2016 14:00 13,8 C 51 % 1025,9 hPa 0,0 l/m 7,6 km/h N 3,7 C 12,7 C 18,9 km/h
26.01.2016 15:00 13,6 C 54 % 1026,2 hPa 0,0 l/m 0,1 km/h N 4,4 C 13,6 C 1,6 km/h
26.01.2016 16:00 11,4 C 60 % 1026,3 hPa 0,0 l/m 0,1 km/h N 3,9 C 11,4 C 1,6 km/h
26.01.2016 17:00 7,2 C 70 % 1026,8 hPa 0,0 l/m 0,2 km/h N 2,0 C 7,2 C 1,6 km/h
26.01.2016 18:00 4,4 C 78 % 1027,0 hPa 0,0 l/m 0,1 km/h N 0,9 C 4,4 C 0,8 km/h
26.01.2016 19:00 3,1 C 81 % 1026,9 hPa 0,0 l/m 0,0 km/h N 0,2 C 3,1 C 0,0 km/h
26.01.2016 20:00 2,1 C 83 % 1026,3 hPa 0,0 l/m 0,0 km/h N -0,5 C 2,1 C 0,0 km/h
26.01.2016 21:00 1,3 C 83 % 1026,3 hPa 0,0 l/m 0,0 km/h N -1,2 C 1,3 C 0,0 km/h
26.01.2016 22:00 0,9 C 84 % 1026,2 hPa 0,0 l/m 0,1 km/h N -1,4 C 0,9 C 0,8 km/h
26.01.2016 23:00 0,6 C 84 % 1026,1 hPa 0,0 l/m 0,1 km/h N -1,7 C 0,6 C 1,2 km/h
27.01.2016 00:00 0,3 C 84 % 1025,6 hPa 0,0 l/m 0,0 km/h N -2,1 C 0,3 C 0,0 km/h
27.01.2016 01:00 -0,4 C 84 % 1025,2 hPa 0,0 l/m 0,0 km/h N -2,8 C -0,4 C 0,0 km/h
27.01.2016 02:00 -0,6 C 84 % 1025,2 hPa 0,0 l/m 0,0 km/h N -3,0 C -0,6 C 0,0 km/h
27.01.2016 03:00 -0,2 C 83 % 1025,1 hPa 0,0 l/m 0,0 km/h N -2,8 C -0,2 C 0,8 km/h
27.01.2016 04:00 -0,3 C 83 % 1025,3 hPa 0,0 l/m 0,0 km/h N -2,9 C -0,3 C 0,4 km/h
27.01.2016 05:00 -0,5 C 83 % 1025,4 hPa 0,0 l/m 0,0 km/h N -3,0 C -0,5 C 0,8 km/h
27.01.2016 06:00 -0,7 C 83 % 1025,6 hPa 0,0 l/m 0,2 km/h N -3,2 C -0,7 C 2,4 km/h
27.01.2016 07:00 -0,8 C 83 % 1025,9 hPa 0,0 l/m 0,2 km/h N -3,4 C -0,8 C 2,4 km/h
27.01.2016 08:00 -0,9 C 83 % 1026,0 hPa 0,0 l/m 0,1 km/h N -3,4 C -0,9 C 1,6 km/h
27.01.2016 09:00 -0,2 C 83 % 1025,9 hPa 0,0 l/m 0,5 km/h N -2,8 C -0,2 C 4,0 km/h
27.01.2016 10:00 2,7 C 81 % 1025,7 hPa 0,0 l/m 0,6 km/h N -0,2 C 2,7 C 4,4 km/h
27.01.2016 11:00 4,2 C 82 % 1025,1 hPa 0,0 l/m 0,3 km/h N 1,4 C 4,2 C 3,2 km/h
27.01.2016 12:00 5,0 C 83 % 1024,2 hPa 0,0 l/m 0,2 km/h N 2,3 C 5,0 C 2,8 km/h
27.01.2016 13:00 9,6 C 80 % 1023,1 hPa 0,0 l/m 1,5 km/h N 6,3 C 9,6 C 7,3 km/h
27.01.2016 14:00 15,1 C 59 % 1022,4 hPa 0,0 l/m 4,2 km/h N 6,9 C 14,9 C 15,7 km/h
27.01.2016 15:00 16,2 C 50 % 1022,4 hPa 0,0 l/m 3,2 km/h N 5,8 C 16,2 C 12,9 km/h
27.01.2016 16:00 13,8 C 60 % 1022,8 hPa 0,0 l/m 0,3 km/h N 6,1 C 13,8 C 2,8 km/h
27.01.2016 17:00 10,0 C 74 % 1022,8 hPa 0,0 l/m 0,1 km/h N 5,6 C 10,0 C 2,0 km/h
27.01.2016 18:00 8,2 C 79 % 1023,2 hPa 0,0 l/m 0,1 km/h N 4,7 C 8,2 C 1,2 km/h
27.01.2016 19:00 6,3 C 81 % 1023,0 hPa 0,0 l/m 0,0 km/h N 3,2 C 6,3 C 0,4 km/h
27.01.2016 20:00 6,3 C 83 % 1022,6 hPa 0,0 l/m 0,0 km/h N 3,7 C 6,3 C 0,0 km/h
27.01.2016 21:00 6,4 C 83 % 1022,3 hPa 0,0 l/m 0,1 km/h N 3,7 C 6,4 C 1,2 km/h
27.01.2016 22:00 5,6 C 83 % 1022,0 hPa 0,0 l/m 0,0 km/h N 2,9 C 5,6 C 0,4 km/h
27.01.2016 23:00 5,0 C 83 % 1021,9 hPa 0,0 l/m 0,1 km/h N 2,4 C 5,0 C 1,2 km/h
28.01.2016 00:00 5,2 C 83 % 1021,5 hPa 0,0 l/m 0,0 km/h N 2,5 C 5,2 C 0,8 km/h
28.01.2016 01:00 5,4 C 83 % 1020,9 hPa 0,0 l/m 0,1 km/h N 2,7 C 5,4 C 2,0 km/h
28.01.2016 02:00 5,1 C 83 % 1020,6 hPa 0,0 l/m 0,1 km/h N 2,5 C 5,1 C 1,2 km/h
28.01.2016 03:00 5,1 C 83 % 1020,3 hPa 0,0 l/m 0,1 km/h N 2,5 C 5,1 C 2,4 km/h
28.01.2016 04:00 5,2 C 83 % 1020,3 hPa 0,0 l/m 0,1 km/h N 2,6 C 5,2 C 0,8 km/h
28.01.2016 05:00 5,3 C 83 % 1020,2 hPa 0,0 l/m 0,0 km/h N 2,7 C 5,3 C 0,8 km/h
28.01.2016 06:00 5,2 C 84 % 1020,3 hPa 0,0 l/m 0,0 km/h N 2,7 C 5,2 C 0,0 km/h
28.01.2016 07:00 4,5 C 84 % 1020,5 hPa 0,0 l/m 0,2 km/h N 2,0 C 4,5 C 2,0 km/h
28.01.2016 08:00 4,7 C 83 % 1021,0 hPa 0,0 l/m 0,2 km/h N 2,1 C 4,7 C 2,4 km/h
28.01.2016 09:00 6,0 C 83 % 1021,4 hPa 0,0 l/m 0,2 km/h N 3,4 C 6,0 C 2,8 km/h
28.01.2016 10:00 7,5 C 83 % 1021,7 hPa 0,0 l/m 0,8 km/h N 4,8 C 7,5 C 5,6 km/h
28.01.2016 11:00 16,1 C 49 % 1021,3 hPa 0,0 l/m 12,8 km/h N 5,3 C 13,4 C 37,0 km/h
28.01.2016 12:00 16,9 C 45 % 1021,5 hPa 0,0 l/m 13,8 km/h N 4,8 C 13,9 C 35,4 km/h
28.01.2016 13:00 16,1 C 44 % 1021,8 hPa 0,0 l/m 12,1 km/h N 3,8 C 13,5 C 32,6 km/h
28.01.2016 14:00 15,8 C 45 % 1022,0 hPa 0,0 l/m 10,0 km/h N 4,0 C 14,0 C 26,9 km/h
28.01.2016 15:00 15,6 C 47 % 1022,4 hPa 0,0 l/m 13,0 km/h N 4,2 C 12,7 C 28,6 km/h
28.01.2016 16:00 15,0 C 49 % 1023,2 hPa 0,0 l/m 9,8 km/h N 4,4 C 13,3 C 23,7 km/h
28.01.2016 17:00 14,5 C 52 % 1024,4 hPa 0,0 l/m 9,9 km/h N 4,8 C 12,7 C 24,6 km/h
28.01.2016 18:00 13,4 C 58 % 1025,3 hPa 0,0 l/m 10,7 km/h N 5,2 C 11,1 C 25,8 km/h
28.01.2016 19:00 10,1 C 69 % 1026,5 hPa 0,0 l/m 5,0 km/h N 4,7 C 10,1 C 14,9 km/h
28.01.2016 20:00 9,0 C 72 % 1027,2 hPa 0,0 l/m 3,5 km/h N 4,2 C 9,0 C 10,8 km/h
28.01.2016 21:00 8,8 C 73 % 1027,5 hPa 0,0 l/m 1,0 km/h N 4,2 C 8,8 C 4,4 km/h
28.01.2016 22:00 8,6 C 73 % 1027,3 hPa 0,0 l/m 0,8 km/h N 4,0 C 8,6 C 4,8 km/h
28.01.2016 23:00 8,3 C 73 % 1027,1 hPa 0,0 l/m 0,4 km/h N 3,7 C 8,3 C 2,8 km/h
29.01.2016 00:00 8,1 C 74 % 1027,1 hPa 0,0 l/m 1,3 km/h N 3,7 C 8,1 C 5,6 km/h
29.01.2016 01:00 7,7 C 77 % 1027,0 hPa 0,0 l/m 0,0 km/h N 3,9 C 7,7 C 0,0 km/h
29.01.2016 02:00 7,0 C 79 % 1026,9 hPa 0,8 l/m 0,0 km/h N 3,6 C 7,0 C 0,0 km/h
29.01.2016 03:00 6,4 C 81 % 1026,4 hPa 0,3 l/m 0,0 km/h N 3,3 C 6,4 C 0,0 km/h
29.01.2016 04:00 5,9 C 82 % 1026,3 hPa 0,5 l/m 0,0 km/h N 3,1 C 5,9 C 0,0 km/h
29.01.2016 05:00 5,5 C 83 % 1026,7 hPa 1,3 l/m 0,0 km/h N 2,9 C 5,5 C 0,0 km/h
29.01.2016 06:00 5,4 C 83 % 1027,2 hPa 1,8 l/m 0,0 km/h N 2,7 C 5,4 C 0,0 km/h
29.01.2016 07:00 5,4 C 83 % 1028,0 hPa 1,3 l/m 0,3 km/h N 2,8 C 5,4 C 1,2 km/h
29.01.2016 08:00 5,4 C 83 % 1028,5 hPa 1,0 l/m 0,2 km/h N 2,7 C 5,4 C 1,2 km/h
29.01.2016 09:00 5,5 C 83 % 1028,9 hPa 0,0 l/m 0,0 km/h N 2,8 C 5,5 C 0,0 km/h
29.01.2016 10:00 5,8 C 82 % 1029,6 hPa 0,0 l/m 0,0 km/h N 3,0 C 5,8 C 0,0 km/h
29.01.2016 11:00 6,7 C 82 % 1029,3 hPa 0,0 l/m 0,0 km/h N 3,8 C 6,7 C 0,8 km/h
29.01.2016 12:00 7,7 C 82 % 1028,6 hPa 0,0 l/m 1,9 km/h N 4,8 C 7,7 C 6,4 km/h
29.01.2016 13:00 9,8 C 78 % 1027,9 hPa 0,0 l/m 8,1 km/h N 6,0 C 8,6 C 14,5 km/h
29.01.2016 14:00 10,6 C 69 % 1028,0 hPa 0,0 l/m 11,1 km/h N 5,1 C 7,7 C 20,5 km/h
29.01.2016 15:00 10,3 C 67 % 1028,2 hPa 0,3 l/m 9,5 km/h N 4,5 C 8,3 C 18,1 km/h
29.01.2016 16:00 9,7 C 71 % 1028,3 hPa 0,0 l/m 9,4 km/h N 4,6 C 7,6 C 21,7 km/h
29.01.2016 17:00 9,2 C 73 % 1028,4 hPa 0,0 l/m 6,3 km/h N 4,6 C 8,5 C 17,3 km/h
29.01.2016 18:00 8,3 C 75 % 1028,7 hPa 0,0 l/m 0,4 km/h N 4,1 C 8,3 C 2,8 km/h
29.01.2016 19:00 6,0 C 78 % 1028,9 hPa 0,0 l/m 0,0 km/h N 2,5 C 6,0 C 0,4 km/h
29.01.2016 20:00 4,7 C 82 % 1029,0 hPa 0,0 l/m 0,3 km/h N 1,8 C 4,7 C 2,0 km/h
29.01.2016 21:00 4,3 C 83 % 1029,3 hPa 0,0 l/m 0,0 km/h N 1,7 C 4,3 C 0,0 km/h
29.01.2016 22:00 2,7 C 83 % 1028,9 hPa 0,0 l/m 0,1 km/h N 0,1 C 2,7 C 0,8 km/h
29.01.2016 23:00 1,7 C 84 % 1028,4 hPa 0,0 l/m 0,1 km/h N -0,7 C 1,7 C 0,8 km/h
30.01.2016 00:00 1,0 C 84 % 1028,1 hPa 0,0 l/m 0,2 km/h N -1,4 C 1,0 C 2,4 km/h
30.01.2016 01:00 0,5 C 84 % 1027,8 hPa 0,0 l/m 0,0 km/h N -1,9 C 0,5 C 0,0 km/h
30.01.2016 02:00 0,4 C 84 % 1027,4 hPa 0,0 l/m 0,1 km/h N -2,0 C 0,4 C 0,8 km/h
30.01.2016 03:00 0,2 C 83 % 1026,7 hPa 0,0 l/m 0,0 km/h N -2,3 C 0,2 C 0,4 km/h
30.01.2016 04:00 -0,1 C 83 % 1026,2 hPa 0,0 l/m 0,0 km/h N -2,7 C -0,1 C 0,5 km/h
30.01.2016 05:00 0,2 C 83 % 1025,9 hPa 0,0 l/m 0,1 km/h N -2,3 C 0,2 C 1,6 km/h
30.01.2016 06:00 -0,6 C 83 % 1025,8 hPa 0,0 l/m 0,0 km/h N -3,1 C -0,6 C 0,0 km/h
30.01.2016 07:00 -1,4 C 83 % 1025,8 hPa 0,0 l/m 0,0 km/h N -3,9 C -1,4 C 0,0 km/h
30.01.2016 08:00 -1,0 C 83 % 1025,6 hPa 0,0 l/m 0,0 km/h N -3,6 C -1,0 C 0,0 km/h
30.01.2016 09:00 1,2 C 82 % 1025,0 hPa 0,0 l/m 0,1 km/h N -1,5 C 1,2 C 0,4 km/h
30.01.2016 10:00 3,0 C 82 % 1024,4 hPa 0,0 l/m 0,3 km/h N 0,2 C 3,0 C 2,8 km/h
30.01.2016 11:00 3,0 C 82 % 1023,8 hPa 0,0 l/m 0,2 km/h N 0,2 C 3,0 C 1,2 km/h
30.01.2016 12:00 3,5 C 83 % 1022,8 hPa 0,0 l/m 0,3 km/h N 0,8 C 3,5 C 2,0 km/h
30.01.2016 13:00 2,9 C 83 % 1021,5 hPa 0,0 l/m 0,4 km/h N 0,3 C 2,9 C 2,4 km/h
30.01.2016 14:00 2,9 C 83 % 1020,5 hPa 0,0 l/m 0,1 km/h N 0,4 C 2,9 C 0,8 km/h
30.01.2016 15:00 3,0 C 83 % 1019,2 hPa 0,0 l/m 0,1 km/h N 0,4 C 3,0 C 0,8 km/h
30.01.2016 16:00 3,0 C 83 % 1018,2 hPa 0,0 l/m 0,5 km/h N 0,4 C 3,0 C 3,2 km/h
30.01.2016 17:00 2,3 C 83 % 1017,2 hPa 0,0 l/m 0,6 km/h N -0,3 C 2,3 C 4,0 km/h
30.01.2016 18:00 1,7 C 83 % 1016,3 hPa 0,0 l/m 0,7 km/h N -0,9 C 1,7 C 4,0 km/h
30.01.2016 19:00 1,1 C 83 % 1015,3 hPa 0,0 l/m 0,2 km/h N -1,4 C 1,1 C 2,4 km/h
30.01.2016 20:00 0,8 C 83 % 1013,7 hPa 0,0 l/m 0,4 km/h N -1,7 C 0,8 C 4,0 km/h
30.01.2016 21:00 0,8 C 83 % 1012,1 hPa 0,0 l/m 0,1 km/h N -1,8 C 0,8 C 2,4 km/h
30.01.2016 22:00 0,9 C 83 % 1012,0 hPa 0,0 l/m 1,4 km/h N -1,6 C 0,9 C 5,2 km/h
30.01.2016 23:00 1,2 C 83 % 1011,6 hPa 0,0 l/m 0,8 km/h N -1,4 C 1,2 C 3,6 km/h
31.01.2016 00:00 1,1 C 82 % 1011,1 hPa 0,0 l/m 0,5 km/h N -1,6 C 1,1 C 2,8 km/h
31.01.2016 01:00 6,8 C 80 % 1010,0 hPa 0,0 l/m 7,8 km/h N 3,6 C 5,5 C 22,9 km/h
31.01.2016 02:00 7,7 C 74 % 1009,7 hPa 0,0 l/m 5,6 km/h N 3,4 C 7,0 C 14,5 km/h
31.01.2016 03:00 10,2 C 69 % 1009,1 hPa 0,0 l/m 16,6 km/h N 4,6 C 4,8 C 35,0 km/h
31.01.2016 04:00 9,9 C 69 % 1010,5 hPa 0,0 l/m 14,8 km/h N 4,5 C 5,4 C 30,6 km/h
31.01.2016 05:00 8,6 C 67 % 1012,0 hPa 0,0 l/m 8,5 km/h N 2,7 C 7,1 C 22,5 km/h
31.01.2016 06:00 7,1 C 71 % 1013,3 hPa 0,0 l/m 7,3 km/h N 2,1 C 6,4 C 20,5 km/h
31.01.2016 07:00 6,5 C 71 % 1014,6 hPa 0,0 l/m 6,9 km/h N 1,7 C 6,0 C 19,3 km/h
31.01.2016 08:00 6,0 C 75 % 1015,4 hPa 0,3 l/m 8,9 km/h N 1,9 C 3,6 C 17,3 km/h
31.01.2016 09:00 5,2 C 79 % 1015,7 hPa 0,3 l/m 8,7 km/h N 1,9 C 3,3 C 20,5 km/h
31.01.2016 10:00 5,5 C 78 % 1015,9 hPa 0,0 l/m 6,8 km/h N 2,0 C 4,9 C 14,5 km/h
31.01.2016 11:00 6,0 C 74 % 1015,5 hPa 0,0 l/m 10,1 km/h N 1,7 C 3,2 C 25,0 km/h
31.01.2016 12:00 6,5 C 71 % 1014,8 hPa 0,0 l/m 11,5 km/h N 1,5 C 2,8 C 23,7 km/h
31.01.2016 13:00 6,6 C 71 % 1014,1 hPa 0,0 l/m 7,5 km/h N 1,8 C 5,5 C 17,7 km/h
31.01.2016 14:00 6,4 C 75 % 1013,7 hPa 0,0 l/m 4,5 km/h N 2,2 C 6,0 C 12,5 km/h
31.01.2016 15:00 6,8 C 75 % 1013,8 hPa 0,0 l/m 2,4 km/h N 2,5 C 6,8 C 8,8 km/h
31.01.2016 16:00 5,9 C 79 % 1014,2 hPa 0,8 l/m 7,3 km/h N 2,5 C 4,8 C 21,3 km/h
31.01.2016 17:00 5,2 C 81 % 1014,7 hPa 0,0 l/m 4,0 km/h N 2,1 C 5,2 C 13,7 km/h
31.01.2016 18:00 4,9 C 82 % 1015,1 hPa 0,3 l/m 5,4 km/h N 2,0 C 4,5 C 18,1 km/h
31.01.2016 19:00 4,8 C 82 % 1015,0 hPa 0,0 l/m 1,2 km/h N 1,9 C 4,8 C 6,4 km/h
31.01.2016 20:00 4,4 C 82 % 1014,7 hPa 0,0 l/m 0,1 km/h N 1,7 C 4,4 C 4,0 km/h
31.01.2016 21:00 4,5 C 82 % 1014,5 hPa 0,0 l/m 0,2 km/h N 1,7 C 4,5 C 2,0 km/h
31.01.2016 22:00 4,7 C 82 % 1014,4 hPa 0,3 l/m 0,1 km/h N 1,9 C 4,7 C 1,6 km/h
31.01.2016 23:00 4,5 C 83 % 1013,9 hPa 0,3 l/m 0,0 km/h N 1,8 C 4,5 C 0,0 km/h
Min-Datum _ 30.01.16 28.01.16 31.01.16 - 25.01.16 - 30.01.16 30.01.16 25.01.16
_ Min-Zeit 07:47 11:46 03:16 - 00:01 - 07:47 07:47 00:01
Minimum _ -1,6 C 44 % 1008,8 hPa - 0,0 km/h - -4,1 C -1,6 C 0,0 km/h
Max-Datum _ 28.01.16 25.01.16 25.01.16 29.01.16 31.01.16 - 27.01.16 27.01.16 28.01.16
_ Max-Zeit 11:46 00:01 00:01 06:31 03:16 - 13:46 15:00 11:30
Maximum _ 17,7 C 84 % 1032,1 hPa 1,8 l/m 21,6 km/h
N
- 8,5 C 16,4 C 40,2 km/h
N
Durchschnitt _ 6,0 C 77 % 1023,4 hPa #14,6 l/m 3,1 km/h N 2,0 C 5,5 C 8,3 km/h